sensor_id;sensor_type;location;lat;lon;timestamp;temperature;humidity
17659;DHT22;8948;51.534;8.262;2023-05-27T00:01:32;12.10;58.90
17659;DHT22;8948;51.534;8.262;2023-05-27T00:06:33;12.00;58.70
17659;DHT22;8948;51.534;8.262;2023-05-27T00:11:33;11.80;58.50
17659;DHT22;8948;51.534;8.262;2023-05-27T00:16:34;11.70;58.70
17659;DHT22;8948;51.534;8.262;2023-05-27T00:21:36;11.50;58.90
17659;DHT22;8948;51.534;8.262;2023-05-27T00:26:37;11.50;59.40
17659;DHT22;8948;51.534;8.262;2023-05-27T00:31:39;11.30;59.30
17659;DHT22;8948;51.534;8.262;2023-05-27T00:36:40;11.20;59.30
17659;DHT22;8948;51.534;8.262;2023-05-27T00:41:44;11.20;59.50
17659;DHT22;8948;51.534;8.262;2023-05-27T00:46:48;11.10;59.60
17659;DHT22;8948;51.534;8.262;2023-05-27T00:51:49;11.00;59.60
17659;DHT22;8948;51.534;8.262;2023-05-27T00:56:50;10.90;59.90
17659;DHT22;8948;51.534;8.262;2023-05-27T01:01:51;10.80;59.90
17659;DHT22;8948;51.534;8.262;2023-05-27T01:12:10;10.60;60.00
17659;DHT22;8948;51.534;8.262;2023-05-27T01:17:15;10.60;60.40
17659;DHT22;8948;51.534;8.262;2023-05-27T01:22:17;10.50;60.40
17659;DHT22;8948;51.534;8.262;2023-05-27T01:27:19;10.40;60.40
17659;DHT22;8948;51.534;8.262;2023-05-27T01:37:46;10.20;60.80
17659;DHT22;8948;51.534;8.262;2023-05-27T01:42:48;10.10;60.60
17659;DHT22;8948;51.534;8.262;2023-05-27T01:47:50;10.00;60.80
17659;DHT22;8948;51.534;8.262;2023-05-27T01:52:50;9.90;61.00
17659;DHT22;8948;51.534;8.262;2023-05-27T01:57:52;9.90;61.10
17659;DHT22;8948;51.534;8.262;2023-05-27T02:02:52;9.80;61.20
17659;DHT22;8948;51.534;8.262;2023-05-27T02:07:53;9.70;60.80
17659;DHT22;8948;51.534;8.262;2023-05-27T02:12:53;9.70;61.50
17659;DHT22;8948;51.534;8.262;2023-05-27T02:17:54;9.60;61.70
17659;DHT22;8948;51.534;8.262;2023-05-27T02:23:00;9.60;61.40
17659;DHT22;8948;51.534;8.262;2023-05-27T02:28:00;9.50;61.70
17659;DHT22;8948;51.534;8.262;2023-05-27T02:33:03;9.40;61.70
17659;DHT22;8948;51.534;8.262;2023-05-27T02:38:03;9.40;62.00
17659;DHT22;8948;51.534;8.262;2023-05-27T02:43:04;9.30;61.90
17659;DHT22;8948;51.534;8.262;2023-05-27T02:48:04;9.20;62.00
17659;DHT22;8948;51.534;8.262;2023-05-27T02:53:05;9.10;62.10
17659;DHT22;8948;51.534;8.262;2023-05-27T02:58:06;9.10;62.00
17659;DHT22;8948;51.534;8.262;2023-05-27T03:03:07;9.00;62.10
17659;DHT22;8948;51.534;8.262;2023-05-27T03:08:08;9.00;62.30
17659;DHT22;8948;51.534;8.262;2023-05-27T03:13:08;8.90;62.50
17659;DHT22;8948;51.534;8.262;2023-05-27T03:18:09;8.80;62.40
17659;DHT22;8948;51.534;8.262;2023-05-27T03:23:10;8.80;62.60
17659;DHT22;8948;51.534;8.262;2023-05-27T03:28:10;8.70;63.00
17659;DHT22;8948;51.534;8.262;2023-05-27T03:33:11;8.70;63.00
17659;DHT22;8948;51.534;8.262;2023-05-27T03:38:11;8.70;63.00
17659;DHT22;8948;51.534;8.262;2023-05-27T03:43:12;8.60;63.40
17659;DHT22;8948;51.534;8.262;2023-05-27T03:48:13;8.60;63.70
17659;DHT22;8948;51.534;8.262;2023-05-27T03:53:13;8.70;63.60
17659;DHT22;8948;51.534;8.262;2023-05-27T03:58:14;8.60;63.90
17659;DHT22;8948;51.534;8.262;2023-05-27T04:03:15;9.20;75.20
17659;DHT22;8948;51.534;8.262;2023-05-27T04:08:15;9.80;70.70
17659;DHT22;8948;51.534;8.262;2023-05-27T04:13:16;10.00;70.40
17659;DHT22;8948;51.534;8.262;2023-05-27T04:18:16;10.50;70.40
17659;DHT22;8948;51.534;8.262;2023-05-27T04:23:17;10.50;64.10
17659;DHT22;8948;51.534;8.262;2023-05-27T04:28:19;10.60;68.60
17659;DHT22;8948;51.534;8.262;2023-05-27T04:33:20;10.90;68.40
17659;DHT22;8948;51.534;8.262;2023-05-27T04:38:22;11.00;64.20
17659;DHT22;8948;51.534;8.262;2023-05-27T04:43:22;10.70;66.30
17659;DHT22;8948;51.534;8.262;2023-05-27T04:48:23;10.80;69.00
17659;DHT22;8948;51.534;8.262;2023-05-27T04:53:24;11.10;68.00
17659;DHT22;8948;51.534;8.262;2023-05-27T04:58:25;11.40;67.00
17659;DHT22;8948;51.534;8.262;2023-05-27T05:03:26;11.60;65.20
17659;DHT22;8948;51.534;8.262;2023-05-27T05:08:52;11.40;64.10
17659;DHT22;8948;51.534;8.262;2023-05-27T05:13:53;11.10;65.10
17659;DHT22;8948;51.534;8.262;2023-05-27T05:18:53;10.90;65.60
17659;DHT22;8948;51.534;8.262;2023-05-27T05:23:54;11.00;65.30
17659;DHT22;8948;51.534;8.262;2023-05-27T05:28:55;11.10;65.60
17659;DHT22;8948;51.534;8.262;2023-05-27T05:33:55;11.30;65.20
17659;DHT22;8948;51.534;8.262;2023-05-27T05:38:56;11.40;65.40
17659;DHT22;8948;51.534;8.262;2023-05-27T05:43:56;11.50;66.10
17659;DHT22;8948;51.534;8.262;2023-05-27T05:48:57;11.50;67.30
17659;DHT22;8948;51.534;8.262;2023-05-27T05:53:58;11.70;68.30
17659;DHT22;8948;51.534;8.262;2023-05-27T05:58:58;11.80;66.70
17659;DHT22;8948;51.534;8.262;2023-05-27T06:03:59;12.00;66.70
17659;DHT22;8948;51.534;8.262;2023-05-27T06:09:04;12.20;65.80
17659;DHT22;8948;51.534;8.262;2023-05-27T06:14:05;12.30;66.60
17659;DHT22;8948;51.534;8.262;2023-05-27T06:19:07;12.60;67.40
17659;DHT22;8948;51.534;8.262;2023-05-27T06:24:08;12.80;66.20
17659;DHT22;8948;51.534;8.262;2023-05-27T06:29:08;12.90;66.30
17659;DHT22;8948;51.534;8.262;2023-05-27T06:34:09;13.10;67.10
17659;DHT22;8948;51.534;8.262;2023-05-27T06:39:09;13.40;65.50
17659;DHT22;8948;51.534;8.262;2023-05-27T06:44:10;13.50;65.20
17659;DHT22;8948;51.534;8.262;2023-05-27T06:49:11;13.80;64.80
17659;DHT22;8948;51.534;8.262;2023-05-27T06:54:11;14.00;64.00
17659;DHT22;8948;51.534;8.262;2023-05-27T06:59:12;14.20;64.80
17659;DHT22;8948;51.534;8.262;2023-05-27T07:04:13;14.50;63.50
17659;DHT22;8948;51.534;8.262;2023-05-27T07:09:14;14.80;65.80
17659;DHT22;8948;51.534;8.262;2023-05-27T07:14:15;15.00;62.30
17659;DHT22;8948;51.534;8.262;2023-05-27T07:19:15;15.30;61.30
17659;DHT22;8948;51.534;8.262;2023-05-27T07:24:16;15.60;61.40
17659;DHT22;8948;51.534;8.262;2023-05-27T07:29:17;15.80;59.20
17659;DHT22;8948;51.534;8.262;2023-05-27T07:34:17;15.90;57.80
17659;DHT22;8948;51.534;8.262;2023-05-27T07:39:18;16.10;56.80
17659;DHT22;8948;51.534;8.262;2023-05-27T07:44:19;16.20;58.10
17659;DHT22;8948;51.534;8.262;2023-05-27T07:49:19;16.40;57.90
17659;DHT22;8948;51.534;8.262;2023-05-27T07:54:21;16.60;57.30
17659;DHT22;8948;51.534;8.262;2023-05-27T07:59:21;16.80;56.30
17659;DHT22;8948;51.534;8.262;2023-05-27T08:04:22;16.90;55.20
17659;DHT22;8948;51.534;8.262;2023-05-27T08:09:22;17.10;55.70
17659;DHT22;8948;51.534;8.262;2023-05-27T08:14:23;17.40;55.50
17659;DHT22;8948;51.534;8.262;2023-05-27T08:19:25;17.70;54.40
17659;DHT22;8948;51.534;8.262;2023-05-27T08:24:25;17.90;51.10
17659;DHT22;8948;51.534;8.262;2023-05-27T08:29:27;17.80;50.80
17659;DHT22;8948;51.534;8.262;2023-05-27T08:34:28;18.10;53.30
17659;DHT22;8948;51.534;8.262;2023-05-27T08:39:29;18.50;50.90
17659;DHT22;8948;51.534;8.262;2023-05-27T08:44:30;18.70;52.10
17659;DHT22;8948;51.534;8.262;2023-05-27T08:49:31;18.80;51.80
17659;DHT22;8948;51.534;8.262;2023-05-27T08:54:32;19.10;51.10
17659;DHT22;8948;51.534;8.262;2023-05-27T08:59:34;19.10;49.00
17659;DHT22;8948;51.534;8.262;2023-05-27T09:04:36;19.10;49.20
17659;DHT22;8948;51.534;8.262;2023-05-27T09:09:41;19.40;50.90
17659;DHT22;8948;51.534;8.262;2023-05-27T09:14:41;19.70;48.60
17659;DHT22;8948;51.534;8.262;2023-05-27T09:19:47;19.80;49.50
17659;DHT22;8948;51.534;8.262;2023-05-27T09:24:47;20.00;48.40
17659;DHT22;8948;51.534;8.262;2023-05-27T09:29:48;20.20;47.40
17659;DHT22;8948;51.534;8.262;2023-05-27T09:34:48;20.50;46.10
17659;DHT22;8948;51.534;8.262;2023-05-27T09:39:51;20.60;46.10
17659;DHT22;8948;51.534;8.262;2023-05-27T09:44:54;20.90;47.50
17659;DHT22;8948;51.534;8.262;2023-05-27T09:49:55;21.10;45.70
17659;DHT22;8948;51.534;8.262;2023-05-27T09:54:57;21.10;44.90
17659;DHT22;8948;51.534;8.262;2023-05-27T09:59:59;21.30;46.50
17659;DHT22;8948;51.534;8.262;2023-05-27T10:05:02;21.30;46.00
17659;DHT22;8948;51.534;8.262;2023-05-27T10:10:07;21.40;45.60
17659;DHT22;8948;51.534;8.262;2023-05-27T10:15:09;21.50;46.90
17659;DHT22;8948;51.534;8.262;2023-05-27T10:20:10;21.50;47.30
17659;DHT22;8948;51.534;8.262;2023-05-27T10:25:14;21.80;44.70
17659;DHT22;8948;51.534;8.262;2023-05-27T10:30:15;22.00;46.80
17659;DHT22;8948;51.534;8.262;2023-05-27T10:35:19;22.20;42.10
17659;DHT22;8948;51.534;8.262;2023-05-27T10:40:26;22.50;45.00
17659;DHT22;8948;51.534;8.262;2023-05-27T10:45:32;22.70;43.30
17659;DHT22;8948;51.534;8.262;2023-05-27T10:50:34;22.90;43.90
17659;DHT22;8948;51.534;8.262;2023-05-27T10:55:36;23.10;46.10
17659;DHT22;8948;51.534;8.262;2023-05-27T11:00:37;22.90;44.10
17659;DHT22;8948;51.534;8.262;2023-05-27T11:05:40;23.20;41.70
17659;DHT22;8948;51.534;8.262;2023-05-27T11:10:41;23.20;43.30
17659;DHT22;8948;51.534;8.262;2023-05-27T11:15:42;23.30;43.50
17659;DHT22;8948;51.534;8.262;2023-05-27T11:20:43;23.60;44.40
17659;DHT22;8948;51.534;8.262;2023-05-27T11:25:44;23.80;43.00
17659;DHT22;8948;51.534;8.262;2023-05-27T11:30:44;23.80;40.60
17659;DHT22;8948;51.534;8.262;2023-05-27T11:35:46;23.80;42.90
17659;DHT22;8948;51.534;8.262;2023-05-27T11:40:47;24.30;42.60
17659;DHT22;8948;51.534;8.262;2023-05-27T11:45:47;24.50;43.80
17659;DHT22;8948;51.534;8.262;2023-05-27T11:50:49;24.60;43.50
17659;DHT22;8948;51.534;8.262;2023-05-27T11:55:50;24.50;41.30
17659;DHT22;8948;51.534;8.262;2023-05-27T12:00:52;24.40;42.00
17659;DHT22;8948;51.534;8.262;2023-05-27T12:05:52;24.60;42.50
17659;DHT22;8948;51.534;8.262;2023-05-27T12:10:53;25.10;42.80
17659;DHT22;8948;51.534;8.262;2023-05-27T12:15:57;25.20;38.80
17659;DHT22;8948;51.534;8.262;2023-05-27T12:20:57;25.30;42.10
17659;DHT22;8948;51.534;8.262;2023-05-27T12:25:58;25.70;42.40
17659;DHT22;8948;51.534;8.262;2023-05-27T12:30:59;25.80;40.80
17659;DHT22;8948;51.534;8.262;2023-05-27T12:36:01;25.70;40.20
17659;DHT22;8948;51.534;8.262;2023-05-27T12:41:02;25.70;40.40
17659;DHT22;8948;51.534;8.262;2023-05-27T12:46:03;25.90;40.20
17659;DHT22;8948;51.534;8.262;2023-05-27T12:51:04;25.90;38.10
17659;DHT22;8948;51.534;8.262;2023-05-27T12:56:05;25.90;39.20
17659;DHT22;8948;51.534;8.262;2023-05-27T13:01:06;26.00;35.70
17659;DHT22;8948;51.534;8.262;2023-05-27T13:06:07;26.00;39.00
17659;DHT22;8948;51.534;8.262;2023-05-27T13:11:08;26.10;37.90
17659;DHT22;8948;51.534;8.262;2023-05-27T13:16:09;26.10;39.30
17659;DHT22;8948;51.534;8.262;2023-05-27T13:21:10;26.30;37.20
17659;DHT22;8948;51.534;8.262;2023-05-27T13:26:10;26.30;37.40
17659;DHT22;8948;51.534;8.262;2023-05-27T13:31:11;26.30;39.30
17659;DHT22;8948;51.534;8.262;2023-05-27T13:36:12;26.40;37.00
17659;DHT22;8948;51.534;8.262;2023-05-27T13:41:13;26.70;38.00
17659;DHT22;8948;51.534;8.262;2023-05-27T13:46:14;26.50;35.20
17659;DHT22;8948;51.534;8.262;2023-05-27T13:51:14;26.80;37.60
17659;DHT22;8948;51.534;8.262;2023-05-27T13:56:15;27.00;35.80
17659;DHT22;8948;51.534;8.262;2023-05-27T14:01:16;27.10;37.40
17659;DHT22;8948;51.534;8.262;2023-05-27T14:06:17;27.40;36.00
17659;DHT22;8948;51.534;8.262;2023-05-27T14:11:18;27.20;34.30
17659;DHT22;8948;51.534;8.262;2023-05-27T14:16:18;27.00;37.00
17659;DHT22;8948;51.534;8.262;2023-05-27T14:21:21;27.10;37.00
17659;DHT22;8948;51.534;8.262;2023-05-27T14:26:22;27.20;35.10
17659;DHT22;8948;51.534;8.262;2023-05-27T14:31:22;27.30;36.60
17659;DHT22;8948;51.534;8.262;2023-05-27T14:36:23;27.30;35.30
17659;DHT22;8948;51.534;8.262;2023-05-27T14:41:23;27.20;33.30
17659;DHT22;8948;51.534;8.262;2023-05-27T14:46:24;27.30;34.30
17659;DHT22;8948;51.534;8.262;2023-05-27T14:51:25;27.20;36.40
17659;DHT22;8948;51.534;8.262;2023-05-27T14:56:25;27.50;35.50
17659;DHT22;8948;51.534;8.262;2023-05-27T15:01:26;27.50;32.90
17659;DHT22;8948;51.534;8.262;2023-05-27T15:06:27;27.30;32.80
17659;DHT22;8948;51.534;8.262;2023-05-27T15:11:27;26.90;35.10
17659;DHT22;8948;51.534;8.262;2023-05-27T15:16:28;27.10;36.40
17659;DHT22;8948;51.534;8.262;2023-05-27T15:21:29;27.40;34.70
17659;DHT22;8948;51.534;8.262;2023-05-27T15:26:30;27.10;34.00
17659;DHT22;8948;51.534;8.262;2023-05-27T15:31:30;27.10;34.50
17659;DHT22;8948;51.534;8.262;2023-05-27T15:36:31;27.50;34.00
17659;DHT22;8948;51.534;8.262;2023-05-27T15:41:32;27.20;32.40
17659;DHT22;8948;51.534;8.262;2023-05-27T15:46:33;27.10;35.00
17659;DHT22;8948;51.534;8.262;2023-05-27T15:51:33;27.10;34.40
17659;DHT22;8948;51.534;8.262;2023-05-27T15:56:34;27.00;34.40
17659;DHT22;8948;51.534;8.262;2023-05-27T16:01:35;27.10;35.20
17659;DHT22;8948;51.534;8.262;2023-05-27T16:06:36;27.10;35.10
17659;DHT22;8948;51.534;8.262;2023-05-27T16:11:37;26.70;34.40
17659;DHT22;8948;51.534;8.262;2023-05-27T16:16:37;26.30;33.60
17659;DHT22;8948;51.534;8.262;2023-05-27T16:21:38;26.20;32.60
17659;DHT22;8948;51.534;8.262;2023-05-27T16:26:39;26.00;34.60
17659;DHT22;8948;51.534;8.262;2023-05-27T16:31:39;26.00;34.70
17659;DHT22;8948;51.534;8.262;2023-05-27T16:36:40;25.80;35.40
17659;DHT22;8948;51.534;8.262;2023-05-27T16:41:41;25.80;35.90
17659;DHT22;8948;51.534;8.262;2023-05-27T16:46:41;25.50;37.20
17659;DHT22;8948;51.534;8.262;2023-05-27T16:51:42;25.30;37.10
17659;DHT22;8948;51.534;8.262;2023-05-27T16:56:42;25.00;37.20
17659;DHT22;8948;51.534;8.262;2023-05-27T17:01:43;24.90;38.00
17659;DHT22;8948;51.534;8.262;2023-05-27T17:06:43;24.90;38.10
17659;DHT22;8948;51.534;8.262;2023-05-27T17:11:44;24.80;38.20
17659;DHT22;8948;51.534;8.262;2023-05-27T17:16:45;24.80;37.60
17659;DHT22;8948;51.534;8.262;2023-05-27T17:21:46;24.60;38.60
17659;DHT22;8948;51.534;8.262;2023-05-27T17:26:47;24.50;38.00
17659;DHT22;8948;51.534;8.262;2023-05-27T17:31:47;24.60;38.20
17659;DHT22;8948;51.534;8.262;2023-05-27T17:36:48;24.30;37.90
17659;DHT22;8948;51.534;8.262;2023-05-27T17:41:48;24.20;38.90
17659;DHT22;8948;51.534;8.262;2023-05-27T17:46:49;24.30;39.00
17659;DHT22;8948;51.534;8.262;2023-05-27T17:51:50;24.40;39.30
17659;DHT22;8948;51.534;8.262;2023-05-27T17:56:50;24.30;38.90
17659;DHT22;8948;51.534;8.262;2023-05-27T18:01:51;24.20;39.60
17659;DHT22;8948;51.534;8.262;2023-05-27T18:06:51;24.10;39.40
17659;DHT22;8948;51.534;8.262;2023-05-27T18:11:52;24.10;40.20
17659;DHT22;8948;51.534;8.262;2023-05-27T18:16:52;24.00;40.30
17659;DHT22;8948;51.534;8.262;2023-05-27T18:21:53;23.80;40.50
17659;DHT22;8948;51.534;8.262;2023-05-27T18:26:54;23.70;40.40
17659;DHT22;8948;51.534;8.262;2023-05-27T18:31:54;23.60;40.50
17659;DHT22;8948;51.534;8.262;2023-05-27T18:36:55;23.30;40.50
17659;DHT22;8948;51.534;8.262;2023-05-27T18:41:56;23.20;41.30
17659;DHT22;8948;51.534;8.262;2023-05-27T18:46:57;23.10;41.30
17659;DHT22;8948;51.534;8.262;2023-05-27T18:51:58;22.90;41.80
17659;DHT22;8948;51.534;8.262;2023-05-27T18:56:58;22.80;42.50
17659;DHT22;8948;51.534;8.262;2023-05-27T19:01:59;22.60;43.10
17659;DHT22;8948;51.534;8.262;2023-05-27T19:06:59;22.20;44.00
17659;DHT22;8948;51.534;8.262;2023-05-27T19:12:00;22.00;45.00
17659;DHT22;8948;51.534;8.262;2023-05-27T19:17:02;21.80;45.50
17659;DHT22;8948;51.534;8.262;2023-05-27T19:22:03;21.50;46.00
17659;DHT22;8948;51.534;8.262;2023-05-27T19:27:04;21.30;46.70
17659;DHT22;8948;51.534;8.262;2023-05-27T19:32:04;21.20;46.70
17659;DHT22;8948;51.534;8.262;2023-05-27T19:37:05;21.00;47.10
17659;DHT22;8948;51.534;8.262;2023-05-27T19:42:06;20.90;48.00
17659;DHT22;8948;51.534;8.262;2023-05-27T19:47:06;20.60;48.10
17659;DHT22;8948;51.534;8.262;2023-05-27T19:52:07;20.40;48.60
17659;DHT22;8948;51.534;8.262;2023-05-27T19:57:08;20.20;49.10
17659;DHT22;8948;51.534;8.262;2023-05-27T20:02:08;20.00;49.10
17659;DHT22;8948;51.534;8.262;2023-05-27T20:07:09;19.80;49.70
17659;DHT22;8948;51.534;8.262;2023-05-27T20:12:09;19.60;50.10
17659;DHT22;8948;51.534;8.262;2023-05-27T20:17:10;19.40;50.20
17659;DHT22;8948;51.534;8.262;2023-05-27T20:22:10;19.30;50.50
17659;DHT22;8948;51.534;8.262;2023-05-27T20:27:11;19.10;50.80
17659;DHT22;8948;51.534;8.262;2023-05-27T20:32:11;18.90;51.10
17659;DHT22;8948;51.534;8.262;2023-05-27T20:37:13;18.70;51.30
17659;DHT22;8948;51.534;8.262;2023-05-27T20:42:14;18.50;51.40
17659;DHT22;8948;51.534;8.262;2023-05-27T20:47:14;18.40;51.40
17659;DHT22;8948;51.534;8.262;2023-05-27T20:52:15;18.30;51.20
17659;DHT22;8948;51.534;8.262;2023-05-27T20:57:15;18.00;51.40
17659;DHT22;8948;51.534;8.262;2023-05-27T21:02:16;18.00;50.90
17659;DHT22;8948;51.534;8.262;2023-05-27T21:07:18;17.80;50.90
17659;DHT22;8948;51.534;8.262;2023-05-27T21:12:19;17.70;50.90
17659;DHT22;8948;51.534;8.262;2023-05-27T21:17:19;17.60;51.00
17659;DHT22;8948;51.534;8.262;2023-05-27T21:22:20;17.50;51.00
17659;DHT22;8948;51.534;8.262;2023-05-27T21:27:21;17.30;51.30
17659;DHT22;8948;51.534;8.262;2023-05-27T21:32:21;17.20;51.00
17659;DHT22;8948;51.534;8.262;2023-05-27T21:37:23;17.20;51.30
17659;DHT22;8948;51.534;8.262;2023-05-27T21:42:23;17.00;51.50
17659;DHT22;8948;51.534;8.262;2023-05-27T21:47:24;17.00;52.00
17659;DHT22;8948;51.534;8.262;2023-05-27T21:52:25;16.80;52.30
17659;DHT22;8948;51.534;8.262;2023-05-27T21:57:25;16.70;52.40
17659;DHT22;8948;51.534;8.262;2023-05-27T22:02:26;16.70;52.50
17659;DHT22;8948;51.534;8.262;2023-05-27T22:07:27;16.60;52.30
17659;DHT22;8948;51.534;8.262;2023-05-27T22:12:27;16.60;51.90
17659;DHT22;8948;51.534;8.262;2023-05-27T22:17:28;16.60;51.10
17659;DHT22;8948;51.534;8.262;2023-05-27T22:22:29;16.60;50.80
17659;DHT22;8948;51.534;8.262;2023-05-27T22:27:30;16.70;50.90
17659;DHT22;8948;51.534;8.262;2023-05-27T22:32:31;16.60;50.70
17659;DHT22;8948;51.534;8.262;2023-05-27T22:37:32;16.50;51.00
17659;DHT22;8948;51.534;8.262;2023-05-27T22:42:32;16.50;51.20
17659;DHT22;8948;51.534;8.262;2023-05-27T22:47:33;16.50;51.30
17659;DHT22;8948;51.534;8.262;2023-05-27T22:52:35;16.30;51.70
17659;DHT22;8948;51.534;8.262;2023-05-27T22:57:36;16.10;51.80
17659;DHT22;8948;51.534;8.262;2023-05-27T23:02:36;15.90;52.20
17659;DHT22;8948;51.534;8.262;2023-05-27T23:07:37;15.90;52.40
17659;DHT22;8948;51.534;8.262;2023-05-27T23:12:37;15.90;52.40
17659;DHT22;8948;51.534;8.262;2023-05-27T23:17:38;15.80;52.60
17659;DHT22;8948;51.534;8.262;2023-05-27T23:22:38;15.70;52.90
17659;DHT22;8948;51.534;8.262;2023-05-27T23:27:39;15.60;53.00
17659;DHT22;8948;51.534;8.262;2023-05-27T23:32:41;15.60;53.20
17659;DHT22;8948;51.534;8.262;2023-05-27T23:37:42;15.60;53.00
17659;DHT22;8948;51.534;8.262;2023-05-27T23:42:43;15.50;52.90
17659;DHT22;8948;51.534;8.262;2023-05-27T23:47:44;15.50;53.10
17659;DHT22;8948;51.534;8.262;2023-05-27T23:52:44;15.50;52.90
17659;DHT22;8948;51.534;8.262;2023-05-27T23:57:45;15.50;53.10
